Neches, TX (75779)

2:20 AM CDT on September 26, 2016 (GMT -0500)
North Palestine | | Change Station

Elev 581 ft 31.84 °N, 95.65 °W | Updated 9 seconds ago

Overcast
Overcast
69.8 °F
Feels Like 69.8 °F
N
0.0
Wind Variable Wind from North
Gusts 1.0 mph

Today
High -- | Low -- °F
--% Chance of Precip.
Yesterday
High -- | Low -- °F
Precip. -- in
Pressure 30.07 in
Visibility 4.0 miles
Clouds Overcast 100 ft
Dew Point 69 °F
Humidity 98%
Rainfall 0.00 in
Snow Depth Not available.
7:13 AM 7:12 PM
Waning Crescent, 21% visible
METAR KPSN 260715Z AUTO 00000KT 4SM BR OVC001 21/21 A3007 RMK AO2 T02120212
Pressure 30.07 in
Visibility 4.0 miles
Clouds Overcast 100 ft
Dew Point 69 °F
Humidity 98%
Rainfall 0.00 in
Snow Depth Not available.
7:13 AM 7:12 PM
Waning Crescent, 21% visible
METAR KPSN 260715Z AUTO 00000KT 4SM BR OVC001 21/21 A3007 RMK AO2 T02120212

10-Day Weather Forecast

Almanac

Astronomy

Sep. 26, 2016 Rise Set
Actual Time
Civil Twilight
Nautical Twilight
Astronomical Twilight
Moon
Length of Visible Light
Length of Day
Tomorrow will be .
, % of the Moon is Illuminated

Today's Extremes

State Highs State Lows

Community

WunderPhotos

Upload Photos

1,941,853 photos uploaded!

WunderBlog® & News

Nearby

Air Quality

  Air Quality AQ Index Pollutant
Not available.

Snow Depth

Station Depth Elevation

Earthquake Activity

City Distance Mag. Time & Date
Minimum magnitude displayed is 2.5.

Coastal Water Temperatures

Place Temperature

Stations

Nearby Weather Stations

Station Location Temp. Windchill Dew Point Humidity Wind Precip. Elev Updated Type
                   

Watches & Warnings

There are currently no watches in effect.